Portada
METAR-TAF:

METAR-TAF

Aeropuertos :

Istres, Francia

latitud: 43-31N, longitud: 004-56E, altitud: 23 m

Observación

El informe se hizo hace 37 minutos, a las 04:00 UTC
Viento 9 kt del norte-noroeste
Temperatura 1°C
Humedad 69%
Presión 1019 hPa
Visibilidad 10 km o más
sin nubes por debajo de 1500 m y sin presencia de cumulonimbus.

METAR: LFMI 150400Z AUTO 33009KT CAVOK 01/M04 Q1019 NOSIG

Hora: 05:37 (04:37 UTC)

Pronóstico

El informe se hizo hace 2 horas y 37 minutos, a las 02:00 UTC
Pronóstico válido del 15 a las 03 UTC al 16 a las 03 UTC
Viento 12 kt del noroeste
Visibilidad 10 km o más
sin nubes por debajo de 1500 m y sin presencia de cumulonimbus.

TAF: LFMI 150200Z 1503/1603 32012KT CAVOK

Observaciones y pronósticos meteorológicos de más de 4000 aeropuertos (mensajes METAR y TAF).

Los puntos amarillos y rojos representan las estaciones disponibles.

Ponga el ratón en el punto deseado para ver el nombre de la estación.

Haga clic para ver las observaciones y los pronósticos meteorológicos.

Para cambiar el mapa : haga clic en los botones verdes con una cruz de color negro para hacer un zoom, en el botón verde con un guión para alejar o en las flechas verdes para mapas adyacentes.


METAR-TAF: